Time,TemperatureF,DewpointF,PressureIn,WindDirection,WindDirectionDegrees,WindSpeedMPH,WindSpeedGustMPH,Humidity,HourlyPrecipIn,Conditions,Clouds,dailyrainin,SoftwareType,DateUTC
2013-04-14 00:00:00,55.2,49.5,29.38,East,90,0.0,0.0,81,0.00,,OVC041,0.00,VWS V14.01,2013-04-14 07:00:00,
2013-04-14 00:02:00,54.9,48.8,29.38,SSW,202,2.0,2.0,80,0.00,,OVC023,0.00,VWS V14.01,2013-04-14 07:02:00,
2013-04-14 00:07:00,54.9,48.8,29.38,SSW,202,2.0,2.0,80,0.00,,OVC023,0.00,VWS V14.01,2013-04-14 07:07:00,
2013-04-14 00:12:00,54.9,48.8,29.38,SSW,202,2.0,2.0,80,0.00,,OVC023,0.00,VWS V14.01,2013-04-14 07:12:00,
2013-04-14 00:17:00,54.9,48.8,29.38,SSW,202,2.0,2.0,80,0.00,,OVC023,0.00,VWS V14.01,2013-04-14 07:17:00,
2013-04-14 00:22:00,54.7,48.6,29.38,SSW,202,2.0,2.0,80,0.00,,OVC023,0.00,VWS V14.01,2013-04-14 07:22:00,
2013-04-14 00:27:00,54.7,48.6,29.38,SSW,202,2.0,2.0,80,0.00,,OVC023,0.00,VWS V14.01,2013-04-14 07:27:00,
2013-04-14 00:32:00,54.7,48.6,29.38,SSW,202,2.0,2.0,80,0.00,,OVC023,0.00,VWS V14.01,2013-04-14 07:32:00,
2013-04-14 00:37:00,54.5,48.8,29.38,SSW,202,2.0,2.0,81,0.00,,OVC023,0.00,VWS V14.01,2013-04-14 07:37:00,
2013-04-14 00:42:00,54.5,48.8,29.38,SSW,202,2.0,2.0,81,0.00,,OVC023,0.00,VWS V14.01,2013-04-14 07:42:00,
2013-04-14 00:47:00,54.5,48.8,29.38,SSW,202,2.0,2.0,81,0.00,,OVC023,0.00,VWS V14.01,2013-04-14 07:47:00,
2013-04-14 00:52:00,54.5,48.8,29.38,SSW,202,2.0,2.0,81,0.00,,OVC023,0.00,VWS V14.01,2013-04-14 07:52:00,
2013-04-14 00:57:00,54.3,48.6,29.38,SSW,202,2.0,2.0,81,0.00,,OVC023,0.00,VWS V14.01,2013-04-14 07:57:00,
2013-04-14 01:02:00,54.3,48.3,29.38,SSW,202,2.0,2.0,80,0.00,,OVC027,0.00,VWS V14.01,2013-04-14 08:02:00,
2013-04-14 01:07:00,54.3,48.3,29.38,SSW,202,2.0,2.0,80,0.00,,OVC027,0.00,VWS V14.01,2013-04-14 08:07:00,
2013-04-14 01:12:00,54.3,48.3,29.38,SSW,202,2.0,2.0,80,0.00,,OVC027,0.00,VWS V14.01,2013-04-14 08:12:00,
2013-04-14 01:17:00,54.3,48.3,29.38,SSW,202,2.0,2.0,80,0.00,,OVC027,0.00,VWS V14.01,2013-04-14 08:17:00,
2013-04-14 01:22:00,54.1,48.1,29.38,SSW,202,2.0,2.0,80,0.00,,OVC027,0.00,VWS V14.01,2013-04-14 08:22:00,
2013-04-14 01:27:00,54.1,48.1,29.38,SSW,202,2.0,2.0,80,0.00,,OVC027,0.00,VWS V14.01,2013-04-14 08:27:00,
2013-04-14 01:32:00,54.1,48.1,29.38,SSW,202,2.0,2.0,80,0.00,,OVC027,0.00,VWS V14.01,2013-04-14 08:32:00,
2013-04-14 01:37:00,54.0,48.3,29.38,SSW,202,2.0,2.0,81,0.00,,OVC027,0.00,VWS V14.01,2013-04-14 08:37:00,
2013-04-14 01:42:00,54.0,48.3,29.38,SSW,202,2.0,2.0,81,0.00,,OVC027,0.00,VWS V14.01,2013-04-14 08:42:00,
2013-04-14 01:48:00,54.0,48.3,29.38,SSW,202,2.0,2.0,81,0.00,,OVC027,0.00,VWS V14.01,2013-04-14 08:48:00,
2013-04-14 01:52:00,54.0,48.3,29.38,SSW,202,2.0,2.0,81,0.00,,OVC027,0.00,VWS V14.01,2013-04-14 08:52:00,
2013-04-14 01:58:00,54.1,48.5,29.38,SSW,202,2.0,2.0,81,0.00,,OVC027,0.00,VWS V14.01,2013-04-14 08:58:00,
2013-04-14 02:03:00,54.1,48.5,29.38,SSW,202,2.0,2.0,81,0.00,,OVC019,0.00,VWS V14.01,2013-04-14 09:03:00,
2013-04-14 02:08:00,54.1,48.5,29.38,SSW,202,2.0,2.0,81,0.00,,OVC019,0.00,VWS V14.01,2013-04-14 09:08:00,
2013-04-14 02:13:00,54.0,48.3,29.38,SSW,202,2.0,2.0,81,0.00,,OVC019,0.00,VWS V14.01,2013-04-14 09:13:00,
2013-04-14 02:18:00,54.1,48.5,29.35,SSW,202,2.0,2.0,81,0.00,,OVC019,0.00,VWS V14.01,2013-04-14 09:18:00,
2013-04-14 02:23:00,54.1,48.5,29.35,SSW,202,2.0,2.0,81,0.00,,OVC019,0.00,VWS V14.01,2013-04-14 09:23:00,
2013-04-14 02:28:00,54.1,48.5,29.35,SSW,202,2.0,2.0,81,0.00,,OVC019,0.00,VWS V14.01,2013-04-14 09:28:00,
2013-04-14 02:33:00,54.0,48.3,29.38,SSW,202,2.0,2.0,81,0.00,,OVC019,0.00,VWS V14.01,2013-04-14 09:33:00,
2013-04-14 02:38:00,53.8,48.1,29.38,SSW,202,2.0,2.0,81,0.00,,OVC019,0.00,VWS V14.01,2013-04-14 09:38:00,
2013-04-14 02:43:00,53.8,48.1,29.38,SSW,202,2.0,2.0,81,0.00,,OVC019,0.00,VWS V14.01,2013-04-14 09:43:00,
2013-04-14 02:48:00,53.8,48.1,29.38,SSW,202,2.0,2.0,81,0.00,,OVC019,0.00,VWS V14.01,2013-04-14 09:48:00,
2013-04-14 02:53:00,53.8,48.1,29.38,SSW,202,2.0,2.0,81,0.00,,OVC019,0.00,VWS V14.01,2013-04-14 09:53:00,
2013-04-14 02:58:00,53.8,48.4,29.38,SSW,202,2.0,2.0,82,0.00,,OVC019,0.00,VWS V14.01,2013-04-14 09:58:00,
2013-04-14 03:03:00,53.8,48.4,29.38,SSW,202,2.0,2.0,82,0.00,,OVC019,0.00,VWS V14.01,2013-04-14 10:03:00,
2013-04-14 03:08:00,53.8,48.4,29.38,SSW,202,2.0,2.0,82,0.00,,OVC019,0.00,VWS V14.01,2013-04-14 10:08:00,
2013-04-14 03:13:00,53.8,48.4,29.38,SSW,202,2.0,2.0,82,0.00,,OVC019,0.00,VWS V14.01,2013-04-14 10:13:00,
2013-04-14 03:18:00,53.8,48.4,29.38,SSW,202,2.0,2.0,82,0.00,,OVC019,0.00,VWS V14.01,2013-04-14 10:18:00,
2013-04-14 03:23:00,53.8,48.4,29.38,SSW,202,2.0,2.0,82,0.00,,OVC019,0.00,VWS V14.01,2013-04-14 10:23:00,
2013-04-14 03:28:00,53.8,48.4,29.38,SSW,202,2.0,2.0,82,0.00,,OVC019,0.00,VWS V14.01,2013-04-14 10:28:00,
2013-04-14 03:33:00,53.8,48.4,29.38,SSW,202,2.0,2.0,82,0.00,,OVC019,0.00,VWS V14.01,2013-04-14 10:33:00,
2013-04-14 03:38:00,53.8,48.4,29.38,SSW,202,2.0,2.0,82,0.00,,OVC019,0.00,VWS V14.01,2013-04-14 10:38:00,
2013-04-14 03:43:00,53.8,48.4,29.38,SSW,202,2.0,2.0,82,0.00,,OVC019,0.00,VWS V14.01,2013-04-14 10:43:00,
2013-04-14 03:48:00,53.6,48.6,29.38,SSW,202,2.0,2.0,83,0.00,,OVC019,0.00,VWS V14.01,2013-04-14 10:48:00,
2013-04-14 03:53:00,53.6,48.6,29.38,SSW,202,2.0,2.0,83,0.00,,OVC019,0.00,VWS V14.01,2013-04-14 10:53:00,
2013-04-14 03:58:00,53.6,48.6,29.38,SSW,202,2.0,2.0,83,0.00,,OVC019,0.00,VWS V14.01,2013-04-14 10:58:00,
2013-04-14 04:03:00,53.6,48.6,29.38,SSW,202,2.0,2.0,83,0.00,,OVC021,0.00,VWS V14.01,2013-04-14 11:03:00,
2013-04-14 04:08:00,53.6,48.6,29.38,SSW,202,2.0,2.0,83,0.00,,OVC021,0.00,VWS V14.01,2013-04-14 11:08:00,
2013-04-14 04:13:00,53.6,48.9,29.38,SSW,202,2.0,2.0,84,0.00,,OVC021,0.00,VWS V14.01,2013-04-14 11:13:00,
2013-04-14 04:18:00,53.6,48.9,29.38,SSW,202,2.0,2.0,84,0.00,,OVC021,0.00,VWS V14.01,2013-04-14 11:18:00,
2013-04-14 04:23:00,53.6,48.9,29.38,SSW,202,2.0,2.0,84,0.00,,OVC021,0.00,VWS V14.01,2013-04-14 11:23:00,
2013-04-14 04:28:00,53.4,49.0,29.38,SSW,202,2.0,2.0,85,0.00,,OVC021,0.00,VWS V14.01,2013-04-14 11:28:00,
2013-04-14 04:33:00,53.2,48.8,29.35,SSW,202,2.0,2.0,85,0.00,,OVC021,0.00,VWS V14.01,2013-04-14 11:33:00,
2013-04-14 04:38:00,53.2,49.2,29.35,SSW,202,2.0,2.0,86,0.00,,OVC021,0.00,VWS V14.01,2013-04-14 11:38:00,
2013-04-14 04:43:00,53.1,49.0,29.35,SSW,202,2.0,2.0,86,0.00,,OVC021,0.00,VWS V14.01,2013-04-14 11:43:00,
2013-04-14 04:48:00,53.1,49.0,29.38,SSW,202,2.0,2.0,86,0.00,,OVC021,0.00,VWS V14.01,2013-04-14 11:48:00,
2013-04-14 04:54:00,53.1,49.3,29.38,SSW,202,2.0,2.0,87,0.00,,OVC021,0.00,VWS V14.01,2013-04-14 11:54:00,
2013-04-14 04:59:00,53.2,49.5,29.38,SSW,202,2.0,2.0,87,0.00,,OVC021,0.00,VWS V14.01,2013-04-14 11:59:00,
2013-04-14 05:04:00,53.2,49.5,29.38,SSW,202,2.0,2.0,87,0.00,,OVC021,0.00,VWS V14.01,2013-04-14 12:04:00,
2013-04-14 05:09:00,53.2,49.5,29.38,SSW,202,2.0,2.0,87,0.00,,OVC021,0.00,VWS V14.01,2013-04-14 12:09:00,
2013-04-14 05:14:00,53.1,49.3,29.38,SSW,202,2.0,2.0,87,0.00,,OVC021,0.00,VWS V14.01,2013-04-14 12:14:00,
2013-04-14 05:19:00,53.1,49.3,29.35,SSW,202,2.0,2.0,87,0.00,,OVC021,0.00,VWS V14.01,2013-04-14 12:19:00,
2013-04-14 05:24:00,53.1,49.6,29.35,SSW,202,2.0,2.0,88,0.00,,OVC021,0.00,VWS V14.01,2013-04-14 12:24:00,
2013-04-14 05:29:00,53.1,49.6,29.35,SSW,202,2.0,2.0,88,0.00,,OVC021,0.00,VWS V14.01,2013-04-14 12:29:00,
2013-04-14 05:34:00,53.1,49.6,29.35,SSW,202,2.0,2.0,88,0.00,,OVC021,0.00,VWS V14.01,2013-04-14 12:34:00,
2013-04-14 05:39:00,53.1,49.6,29.35,SSW,202,2.0,2.0,88,0.00,,OVC021,0.00,VWS V14.01,2013-04-14 12:39:00,
2013-04-14 05:44:00,53.1,49.6,29.35,SSW,202,2.0,2.0,88,0.00,,OVC021,0.00,VWS V14.01,2013-04-14 12:44:00,
2013-04-14 05:49:00,53.1,49.6,29.35,SSW,202,2.0,2.0,88,0.00,,OVC021,0.00,VWS V14.01,2013-04-14 12:49:00,
2013-04-14 05:54:00,53.1,49.9,29.35,SSW,202,2.0,2.0,89,0.00,,OVC021,0.00,VWS V14.01,2013-04-14 12:54:00,
2013-04-14 05:59:00,53.1,49.9,29.35,SSW,202,2.0,2.0,89,0.00,,OVC021,0.00,VWS V14.01,2013-04-14 12:59:00,
2013-04-14 06:04:00,53.1,49.9,29.35,SSW,202,2.0,2.0,89,0.00,,OVC021,0.00,VWS V14.01,2013-04-14 13:04:00,
2013-04-14 06:09:00,53.1,49.9,29.35,SSW,202,2.0,2.0,89,0.00,,OVC021,0.00,VWS V14.01,2013-04-14 13:09:00,
2013-04-14 06:14:00,53.1,49.9,29.38,SSW,202,2.0,2.0,89,0.00,,OVC021,0.00,VWS V14.01,2013-04-14 13:14:00,
2013-04-14 06:19:00,52.9,49.7,29.38,SSW,202,2.0,2.0,89,0.00,,OVC021,0.00,VWS V14.01,2013-04-14 13:19:00,
2013-04-14 06:24:00,52.7,49.8,29.38,SSW,202,2.0,2.0,90,0.00,,OVC021,0.00,VWS V14.01,2013-04-14 13:24:00,
2013-04-14 06:29:00,52.7,49.8,29.38,SSW,202,2.0,2.0,90,0.00,,OVC021,0.00,VWS V14.01,2013-04-14 13:29:00,
2013-04-14 06:34:00,52.7,50.2,29.38,SSW,202,2.0,2.0,91,0.00,,OVC021,0.00,VWS V14.01,2013-04-14 13:34:00,
2013-04-14 06:39:00,52.7,50.2,29.38,SSW,202,2.0,2.0,91,0.00,,OVC021,0.00,VWS V14.01,2013-04-14 13:39:00,
2013-04-14 06:44:00,52.7,50.2,29.38,SSW,202,2.0,2.0,91,0.00,,OVC021,0.00,VWS V14.01,2013-04-14 13:44:00,
2013-04-14 06:49:00,52.7,50.2,29.38,SSW,202,2.0,2.0,91,0.00,,OVC021,0.00,VWS V14.01,2013-04-14 13:49:00,
2013-04-14 06:54:00,52.7,50.5,29.38,SSW,202,2.0,2.0,92,0.00,,OVC021,0.00,VWS V14.01,2013-04-14 13:54:00,
2013-04-14 06:59:00,52.9,50.6,29.38,SSW,202,2.0,2.0,92,0.00,,OVC029,0.00,VWS V14.01,2013-04-14 13:59:00,
2013-04-14 07:04:00,52.9,50.6,29.38,SSW,202,2.0,2.0,92,0.00,,OVC029,0.00,VWS V14.01,2013-04-14 14:04:00,
2013-04-14 07:09:00,53.1,50.8,29.38,SSW,202,2.0,2.0,92,0.00,,OVC029,0.00,VWS V14.01,2013-04-14 14:09:00,
2013-04-14 07:14:00,53.1,50.8,29.38,SSW,202,2.0,2.0,92,0.00,,OVC029,0.00,VWS V14.01,2013-04-14 14:14:00,
2013-04-14 07:19:00,53.1,50.8,29.38,SSW,202,2.0,2.0,92,0.00,,OVC029,0.00,VWS V14.01,2013-04-14 14:19:00,
2013-04-14 07:24:00,53.2,51.0,29.38,SSW,202,2.0,2.0,92,0.00,,OVC029,0.00,VWS V14.01,2013-04-14 14:24:00,
2013-04-14 07:29:00,53.2,51.0,29.38,SSW,202,2.0,2.0,92,0.00,,OVC029,0.00,VWS V14.01,2013-04-14 14:29:00,
2013-04-14 07:34:00,53.2,51.0,29.38,SSW,202,2.0,2.0,92,0.00,,OVC029,0.00,VWS V14.01,2013-04-14 14:34:00,
2013-04-14 07:39:00,53.4,51.2,29.38,SSW,202,2.0,2.0,92,0.00,,OVC029,0.00,VWS V14.01,2013-04-14 14:39:00,
2013-04-14 07:44:00,53.6,51.0,29.38,SSW,202,2.0,2.0,91,0.00,,OVC031,0.00,VWS V14.01,2013-04-14 14:44:00,
2013-04-14 07:49:00,53.8,51.2,29.38,SSW,202,2.0,2.0,91,0.00,,OVC031,0.00,VWS V14.01,2013-04-14 14:49:00,
2013-04-14 07:54:00,54.0,51.4,29.38,SSW,202,2.0,2.0,91,0.00,,OVC031,0.00,VWS V14.01,2013-04-14 14:54:00,
2013-04-14 07:59:00,54.1,51.6,29.38,SSW,202,2.0,2.0,91,0.00,,OVC031,0.00,VWS V14.01,2013-04-14 14:59:00,
2013-04-14 08:04:00,54.5,51.6,29.38,SSW,202,2.0,2.0,90,0.00,,OVC031,0.00,VWS V14.01,2013-04-14 15:04:00,
2013-04-14 08:09:00,54.9,52.0,29.38,SSW,202,2.0,2.0,90,0.00,,OVC031,0.00,VWS V14.01,2013-04-14 15:09:00,
2013-04-14 08:14:00,55.0,51.9,29.38,SSW,202,2.0,2.0,89,0.00,,OVC031,0.00,VWS V14.01,2013-04-14 15:14:00,
2013-04-14 08:19:00,55.2,51.7,29.38,SSW,202,2.0,2.0,88,0.00,,OVC031,0.00,VWS V14.01,2013-04-14 15:19:00,
2013-04-14 08:24:00,55.4,51.6,29.38,SSW,202,2.0,2.0,87,0.00,,OVC031,0.00,VWS V14.01,2013-04-14 15:24:00,
2013-04-14 08:29:00,55.4,51.3,29.38,SSW,202,2.0,2.0,86,0.00,,OVC031,0.00,VWS V14.01,2013-04-14 15:29:00,
2013-04-14 08:34:00,55.6,51.2,29.38,SSW,202,2.0,2.0,85,0.00,,OVC031,0.00,VWS V14.01,2013-04-14 15:34:00,
2013-04-14 08:39:00,55.8,51.0,29.38,SSW,202,2.0,2.0,84,0.00,,OVC031,0.00,VWS V14.01,2013-04-14 15:39:00,
2013-04-14 08:44:00,56.1,51.4,29.38,SSW,202,2.0,2.0,84,0.00,,OVC031,0.00,VWS V14.01,2013-04-14 15:44:00,
2013-04-14 08:49:00,56.5,51.7,29.38,SSW,202,2.0,2.0,84,0.00,,OVC031,0.00,VWS V14.01,2013-04-14 15:49:00,
2013-04-14 08:54:00,56.7,51.6,29.38,SSW,202,2.0,2.0,83,0.00,,OVC031,0.00,VWS V14.01,2013-04-14 15:54:00,
2013-04-14 08:59:00,56.8,51.7,29.38,SSW,202,2.0,2.0,83,0.00,,OVC033,0.00,VWS V14.01,2013-04-14 15:59:00,
2013-04-14 09:04:00,56.8,51.4,29.38,SSW,202,2.0,2.0,82,0.00,,OVC033,0.00,VWS V14.01,2013-04-14 16:04:00,
2013-04-14 09:09:00,56.8,51.1,29.38,SSW,202,2.0,2.0,81,0.00,,OVC033,0.00,VWS V14.01,2013-04-14 16:09:00,
2013-04-14 09:14:00,56.8,51.1,29.38,SSW,202,2.0,2.0,81,0.00,,OVC033,0.00,VWS V14.01,2013-04-14 16:14:00,
2013-04-14 09:20:00,57.2,51.4,29.38,SSW,202,2.0,2.0,81,0.00,,OVC033,0.00,VWS V14.01,2013-04-14 16:20:00,
2013-04-14 09:25:00,57.4,51.3,29.38,SSW,202,2.0,2.0,80,0.00,,OVC033,0.00,VWS V14.01,2013-04-14 16:25:00,
2013-04-14 09:30:00,57.7,51.6,29.38,SSW,202,2.0,2.0,80,0.00,,OVC033,0.00,VWS V14.01,2013-04-14 16:30:00,
2013-04-14 09:35:00,57.9,51.8,29.38,SSW,202,2.0,2.0,80,0.00,,OVC033,0.00,VWS V14.01,2013-04-14 16:35:00,
2013-04-14 09:40:00,57.9,51.8,29.38,SSW,202,2.0,2.0,80,0.00,,OVC033,0.00,VWS V14.01,2013-04-14 16:40:00,
2013-04-14 09:45:00,58.1,52.0,29.38,SSW,202,2.0,2.0,80,0.00,,OVC033,0.00,VWS V14.01,2013-04-14 16:45:00,
2013-04-14 09:50:00,58.3,52.2,29.38,SSW,202,2.0,2.0,80,0.00,,OVC033,0.00,VWS V14.01,2013-04-14 16:50:00,
2013-04-14 09:55:00,58.5,52.3,29.38,SSW,202,2.0,2.0,80,0.00,,OVC033,0.00,VWS V14.01,2013-04-14 16:55:00,
2013-04-14 10:00:00,58.8,52.7,29.38,SSW,202,2.0,2.0,80,0.00,,OVC030,0.00,VWS V14.01,2013-04-14 17:00:00,
2013-04-14 10:05:00,59.4,53.2,29.38,SSW,202,2.0,2.0,80,0.00,,OVC030,0.00,VWS V14.01,2013-04-14 17:05:00,
2013-04-14 10:10:00,60.6,54.4,29.38,SSW,202,2.0,2.0,80,0.00,,OVC030,0.00,VWS V14.01,2013-04-14 17:10:00,
2013-04-14 10:15:00,61.3,53.4,29.38,SSW,202,2.0,2.0,75,0.00,,OVC023,0.00,VWS V14.01,2013-04-14 17:15:00,
2013-04-14 10:20:00,61.7,52.6,29.38,SSW,202,2.0,2.0,72,0.00,,OVC023,0.00,VWS V14.01,2013-04-14 17:20:00,
2013-04-14 10:25:00,62.1,52.9,29.38,SSW,202,2.0,2.0,72,0.00,,OVC023,0.00,VWS V14.01,2013-04-14 17:25:00,
2013-04-14 10:30:00,62.4,52.9,29.38,SSW,202,2.0,2.0,71,0.00,,OVC023,0.00,VWS V14.01,2013-04-14 17:30:00,
2013-04-14 10:35:00,62.8,52.5,29.38,SSW,202,2.0,2.0,69,0.00,,OVC023,0.00,VWS V14.01,2013-04-14 17:35:00,
2013-04-14 10:40:00,63.1,52.4,29.38,SSW,202,2.0,2.0,68,0.00,,OVC023,0.00,VWS V14.01,2013-04-14 17:40:00,
2013-04-14 10:45:00,63.0,51.4,29.38,SSW,202,2.0,2.0,66,0.00,,OVC023,0.00,VWS V14.01,2013-04-14 17:45:00,
2013-04-14 10:50:00,63.0,51.4,29.38,SSW,202,2.0,2.0,66,0.00,,OVC023,0.00,VWS V14.01,2013-04-14 17:50:00,
2013-04-14 10:55:00,63.0,51.4,29.38,SSW,202,2.0,2.0,66,0.00,,OVC023,0.00,VWS V14.01,2013-04-14 17:55:00,
2013-04-14 11:00:00,63.0,51.4,29.38,SSW,202,2.0,2.0,66,0.00,,OVC030,0.00,VWS V14.01,2013-04-14 18:00:00,
2013-04-14 11:05:00,62.2,50.3,29.38,SSW,202,2.0,2.0,65,0.00,,OVC030,0.00,VWS V14.01,2013-04-14 18:05:00,
2013-04-14 11:10:00,62.4,50.9,29.38,SSW,202,2.0,2.0,66,0.00,,OVC030,0.00,VWS V14.01,2013-04-14 18:10:00,
2013-04-14 11:15:00,62.2,50.3,29.38,SSW,202,2.0,2.0,65,0.00,,OVC030,0.00,VWS V14.01,2013-04-14 18:15:00,
2013-04-14 11:20:00,61.9,50.0,29.38,SSW,202,2.0,2.0,65,0.00,,OVC030,0.00,VWS V14.01,2013-04-14 18:20:00,
2013-04-14 11:25:00,62.4,50.5,29.38,SSW,202,2.0,2.0,65,0.00,,OVC030,0.00,VWS V14.01,2013-04-14 18:25:00,
2013-04-14 11:30:00,62.8,50.8,29.38,SSW,202,2.0,2.0,65,0.00,,OVC030,0.00,VWS V14.01,2013-04-14 18:30:00,
2013-04-14 11:35:00,63.1,51.2,29.38,SSW,202,2.0,2.0,65,0.00,,OVC030,0.00,VWS V14.01,2013-04-14 18:35:00,
2013-04-14 11:40:00,62.8,50.4,29.38,SSW,202,2.0,2.0,64,0.00,,OVC030,0.00,VWS V14.01,2013-04-14 18:40:00,
2013-04-14 11:45:00,61.9,50.0,29.35,SSW,202,2.0,2.0,65,0.00,,OVC030,0.00,VWS V14.01,2013-04-14 18:45:00,
2013-04-14 11:50:00,61.7,50.2,29.35,SSW,202,2.0,2.0,66,0.00,,OVC030,0.00,VWS V14.01,2013-04-14 18:50:00,
2013-04-14 11:55:00,62.4,51.3,29.35,SSW,202,2.0,2.0,67,0.00,,OVC030,0.00,VWS V14.01,2013-04-14 18:55:00,
2013-04-14 12:00:00,63.9,51.9,29.38,SSW,202,2.0,2.0,65,0.00,,OVC032,0.00,VWS V14.01,2013-04-14 19:00:00,
2013-04-14 12:05:00,64.0,51.6,29.38,SSW,202,2.0,2.0,64,0.00,,OVC032,0.00,VWS V14.01,2013-04-14 19:05:00,
2013-04-14 12:10:00,63.5,50.7,29.38,SSW,202,2.0,2.0,63,0.00,,OVC032,0.00,VWS V14.01,2013-04-14 19:10:00,
2013-04-14 12:15:00,63.9,50.6,29.38,SSW,202,2.0,2.0,62,0.00,,OVC032,0.00,VWS V14.01,2013-04-14 19:15:00,
2013-04-14 12:20:00,63.3,50.1,29.38,SSW,202,2.0,2.0,62,0.00,,OVC032,0.00,VWS V14.01,2013-04-14 19:20:00,
2013-04-14 12:25:00,62.6,49.8,29.38,SSW,202,2.0,2.0,63,0.00,,OVC032,0.00,VWS V14.01,2013-04-14 19:25:00,
2013-04-14 12:30:00,61.7,49.8,29.38,SSW,202,2.0,2.0,65,0.00,,OVC032,0.00,VWS V14.01,2013-04-14 19:30:00,
2013-04-14 12:35:00,63.1,52.0,29.38,SSW,202,2.0,2.0,67,0.00,,OVC032,0.00,VWS V14.01,2013-04-14 19:35:00,
2013-04-14 12:40:00,65.3,52.8,29.38,SSW,202,2.0,2.0,64,0.00,,OVC032,0.00,VWS V14.01,2013-04-14 19:40:00,
2013-04-14 12:45:00,66.6,52.3,29.38,SSW,202,2.0,2.0,60,0.00,,OVC032,0.00,VWS V14.01,2013-04-14 19:45:00,
2013-04-14 12:50:00,66.2,51.0,29.38,SSW,202,2.0,2.0,58,0.00,,OVC032,0.00,VWS V14.01,2013-04-14 19:50:00,
2013-04-14 12:55:00,67.5,51.7,29.38,SSW,202,2.0,2.0,57,0.00,,OVC032,0.00,VWS V14.01,2013-04-14 19:55:00,
2013-04-14 13:00:00,67.3,51.1,29.35,SSW,202,2.0,2.0,56,0.00,,BKN035,0.00,VWS V14.01,2013-04-14 20:00:00,
2013-04-14 13:05:00,66.2,50.1,29.35,SSW,202,2.0,2.0,56,0.00,,BKN035,0.00,VWS V14.01,2013-04-14 20:05:00,
2013-04-14 13:10:00,64.6,49.5,29.35,SSW,202,2.0,2.0,58,0.00,,BKN035,0.00,VWS V14.01,2013-04-14 20:10:00,
2013-04-14 13:16:00,64.4,50.2,29.38,SSW,202,2.0,2.0,60,0.00,,BKN035,0.00,VWS V14.01,2013-04-14 20:16:00,
2013-04-14 13:21:00,65.7,51.9,29.38,SSW,202,2.0,2.0,61,0.00,,BKN035,0.00,VWS V14.01,2013-04-14 20:21:00,
2013-04-14 13:26:00,65.7,50.5,29.38,SSW,202,2.0,2.0,58,0.00,,BKN035,0.00,VWS V14.01,2013-04-14 20:26:00,
2013-04-14 13:31:00,66.4,50.7,29.38,SSW,202,0.9,0.9,57,0.00,,BKN042,0.00,VWS V14.01,2013-04-14 20:31:00,
2013-04-14 13:36:00,66.7,50.1,29.38,SSW,202,0.9,0.9,55,0.00,,BKN042,0.00,VWS V14.01,2013-04-14 20:36:00,
2013-04-14 13:41:00,66.4,49.7,29.38,SSW,202,0.9,0.9,55,0.00,,BKN042,0.00,VWS V14.01,2013-04-14 20:41:00,
2013-04-14 13:46:00,67.3,50.6,29.35,SSW,202,0.9,0.9,55,0.00,,BKN042,0.00,VWS V14.01,2013-04-14 20:46:00,
2013-04-14 13:51:00,66.6,48.4,29.35,SSW,202,0.9,0.9,52,0.00,,BKN042,0.00,VWS V14.01,2013-04-14 20:51:00,
2013-04-14 13:56:00,67.1,50.4,29.35,SSW,202,0.9,0.9,55,0.00,,BKN042,0.00,VWS V14.01,2013-04-14 20:56:00,
2013-04-14 14:01:00,66.9,49.8,29.35,SSW,202,0.9,0.9,54,0.00,,BKN040,0.00,VWS V14.01,2013-04-14 21:01:00,
2013-04-14 14:06:00,66.6,48.9,29.35,SSW,202,0.9,0.9,53,0.00,,BKN040,0.00,VWS V14.01,2013-04-14 21:06:00,
2013-04-14 14:11:00,66.9,49.2,29.35,SSW,202,0.9,0.9,53,0.00,,BKN040,0.00,VWS V14.01,2013-04-14 21:11:00,
2013-04-14 14:16:00,66.2,48.6,29.35,SSW,202,0.9,0.9,53,0.00,,BKN040,0.00,VWS V14.01,2013-04-14 21:16:00,
2013-04-14 14:21:00,65.8,48.2,29.35,SSW,202,0.9,0.9,53,0.00,,BKN040,0.00,VWS V14.01,2013-04-14 21:21:00,
2013-04-14 14:26:00,64.8,47.8,29.35,SSW,202,0.9,0.9,54,0.00,,BKN040,0.00,VWS V14.01,2013-04-14 21:26:00,
2013-04-14 14:31:00,63.9,47.9,29.35,SSW,202,0.9,0.9,56,0.00,,BKN040,0.00,VWS V14.01,2013-04-14 21:31:00,
2013-04-14 14:36:00,63.5,48.0,29.35,SSW,202,0.9,0.9,57,0.00,,BKN040,0.00,VWS V14.01,2013-04-14 21:36:00,
2013-04-14 14:41:00,63.1,48.1,29.35,SSW,202,0.9,0.9,58,0.00,,BKN040,0.00,VWS V14.01,2013-04-14 21:41:00,
2013-04-14 14:46:00,62.4,48.4,29.35,SSW,202,0.9,0.9,60,0.00,,BKN040,0.00,VWS V14.01,2013-04-14 21:46:00,
2013-04-14 14:51:00,62.8,49.2,29.35,SSW,202,0.9,0.9,61,0.00,,BKN040,0.00,VWS V14.01,2013-04-14 21:51:00,
2013-04-14 14:56:00,62.4,49.2,29.35,SSW,202,0.9,0.9,62,0.00,,BKN040,0.00,VWS V14.01,2013-04-14 21:56:00,
2013-04-14 15:01:00,61.9,48.7,29.35,SSW,202,0.9,0.9,62,0.00,,BKN031,0.00,VWS V14.01,2013-04-14 22:01:00,
2013-04-14 15:07:00,62.2,49.5,29.35,SSW,202,0.9,0.9,63,0.00,,BKN031,0.00,VWS V14.01,2013-04-14 22:07:00,
2013-04-14 15:11:00,62.1,49.3,29.35,SSW,202,0.9,0.9,63,0.00,,BKN031,0.00,VWS V14.01,2013-04-14 22:11:00,
2013-04-14 15:17:00,62.1,49.8,29.35,SSW,202,0.9,0.9,64,0.00,,BKN031,0.00,VWS V14.01,2013-04-14 22:17:00,
2013-04-14 15:22:00,61.9,49.6,29.35,SSW,202,0.9,0.9,64,0.00,,BKN031,0.00,VWS V14.01,2013-04-14 22:22:00,
2013-04-14 15:27:00,61.7,49.4,29.35,SSW,202,0.9,0.9,64,0.00,,BKN031,0.00,VWS V14.01,2013-04-14 22:27:00,
2013-04-14 15:32:00,61.2,48.9,29.35,SSW,202,0.9,0.9,64,0.00,,BKN031,0.00,VWS V14.01,2013-04-14 22:32:00,
2013-04-14 15:37:00,61.0,48.7,29.35,SSW,202,0.9,0.9,64,0.00,,BKN031,0.00,VWS V14.01,2013-04-14 22:37:00,
2013-04-14 15:42:00,61.2,49.3,29.35,SSW,202,0.9,0.9,65,0.00,,BKN031,0.00,VWS V14.01,2013-04-14 22:42:00,
2013-04-14 15:47:00,60.6,48.8,29.32,SSW,202,0.9,0.9,65,0.00,,BKN031,0.00,VWS V14.01,2013-04-14 22:47:00,
2013-04-14 15:52:00,60.6,49.2,29.32,SSW,202,0.9,0.9,66,0.00,,BKN031,0.00,VWS V14.01,2013-04-14 22:52:00,
2013-04-14 15:57:00,60.4,49.4,29.32,SSW,202,0.9,0.9,67,0.00,,BKN031,0.00,VWS V14.01,2013-04-14 22:57:00,
2013-04-14 16:02:00,60.8,49.4,29.35,SSW,202,0.9,0.9,66,0.00,,BKN036,0.00,VWS V14.01,2013-04-14 23:02:00,
2013-04-14 16:07:00,60.1,49.1,29.35,SSW,202,0.9,0.9,67,0.00,,BKN036,0.00,VWS V14.01,2013-04-14 23:07:00,
2013-04-14 16:12:00,59.7,49.2,29.35,SSW,202,0.9,0.9,68,0.00,,BKN036,0.00,VWS V14.01,2013-04-14 23:12:00,
2013-04-14 16:17:00,59.9,49.3,29.32,SSW,202,0.9,0.9,68,0.00,,BKN036,0.00,VWS V14.01,2013-04-14 23:17:00,
2013-04-14 16:23:00,60.1,49.5,29.32,SSW,202,0.9,0.9,68,0.00,,BKN036,0.00,VWS V14.01,2013-04-14 23:23:00,
2013-04-14 16:28:00,59.9,49.7,29.32,SSW,202,0.9,0.9,69,0.00,,BKN036,0.00,VWS V14.01,2013-04-14 23:28:00,
2013-04-14 16:33:00,59.9,49.7,29.32,SSW,202,0.9,0.9,69,0.00,,BKN036,0.00,VWS V14.01,2013-04-14 23:33:00,
2013-04-14 16:38:00,59.9,50.1,29.32,SSW,202,0.9,0.9,70,0.00,,BKN036,0.00,VWS V14.01,2013-04-14 23:38:00,
2013-04-14 16:43:00,59.5,49.8,29.32,SSW,202,0.9,0.9,70,0.00,,BKN036,0.00,VWS V14.01,2013-04-14 23:43:00,
2013-04-14 16:48:00,59.0,49.2,29.32,SSW,202,0.9,0.9,70,0.00,,OVC034,0.00,VWS V14.01,2013-04-14 23:48:00,
2013-04-14 16:53:00,59.0,49.2,29.32,SSW,202,0.9,0.9,70,0.00,,OVC034,0.00,VWS V14.01,2013-04-14 23:53:00,
2013-04-14 16:58:00,58.8,49.5,29.32,SSW,202,0.9,0.9,71,0.00,,OVC034,0.00,VWS V14.01,2013-04-14 23:58:00,
2013-04-14 17:03:00,58.8,49.5,29.35,SSW,202,0.9,0.9,71,0.00,,OVC034,0.00,VWS V14.01,2013-04-15 00:03:00,
2013-04-14 17:08:00,58.6,49.3,29.35,SSW,202,0.9,0.9,71,0.00,,OVC034,0.00,VWS V14.01,2013-04-15 00:08:00,
2013-04-14 17:13:00,58.3,48.9,29.35,SSW,202,0.9,0.9,71,0.00,,OVC034,0.00,VWS V14.01,2013-04-15 00:13:00,
2013-04-14 17:18:00,58.5,49.5,29.35,SSW,202,0.9,0.9,72,0.00,,OVC034,0.00,VWS V14.01,2013-04-15 00:18:00,
2013-04-14 17:23:00,58.3,49.3,29.35,SSW,202,0.9,0.9,72,0.00,,OVC034,0.00,VWS V14.01,2013-04-15 00:23:00,
2013-04-14 17:28:00,58.5,49.5,29.35,SSW,202,0.9,0.9,72,0.00,,OVC034,0.00,VWS V14.01,2013-04-15 00:28:00,
2013-04-14 17:33:00,58.5,49.5,29.35,SSW,202,0.9,0.9,72,0.00,,OVC034,0.00,VWS V14.01,2013-04-15 00:33:00,
2013-04-14 17:38:00,58.3,49.3,29.35,SSW,202,0.9,0.9,72,0.00,,OVC034,0.00,VWS V14.01,2013-04-15 00:38:00,
2013-04-14 17:43:00,58.1,49.5,29.35,SSW,202,0.9,0.9,73,0.00,,OVC034,0.00,VWS V14.01,2013-04-15 00:43:00,
2013-04-14 17:48:00,58.1,49.5,29.35,SSW,202,0.9,0.9,73,0.00,,OVC034,0.00,VWS V14.01,2013-04-15 00:48:00,
2013-04-14 17:53:00,57.9,49.3,29.35,SSW,202,0.9,0.9,73,0.00,,OVC034,0.00,VWS V14.01,2013-04-15 00:53:00,
2013-04-14 17:58:00,57.9,49.7,29.35,SSW,202,0.9,0.9,74,0.00,,OVC034,0.00,VWS V14.01,2013-04-15 00:58:00,
2013-04-14 18:03:00,57.9,49.7,29.35,SSW,202,0.9,0.9,74,0.00,,OVC028,0.00,VWS V14.01,2013-04-15 01:03:00,
2013-04-14 18:08:00,57.9,49.7,29.35,SSW,202,0.9,0.9,74,0.00,,OVC028,0.00,VWS V14.01,2013-04-15 01:08:00,
2013-04-14 18:13:00,57.7,49.5,29.35,SSW,202,0.9,0.9,74,0.00,,OVC028,0.00,VWS V14.01,2013-04-15 01:13:00,
2013-04-14 18:18:00,57.6,49.3,29.35,SSW,202,0.9,0.9,74,0.00,,OVC028,0.00,VWS V14.01,2013-04-15 01:18:00,
2013-04-14 18:23:00,57.6,49.3,29.35,SSW,202,0.9,0.9,74,0.00,,OVC028,0.00,VWS V14.01,2013-04-15 01:23:00,
2013-04-14 18:28:00,57.6,49.3,29.35,SSW,202,0.9,0.9,74,0.00,,OVC028,0.00,VWS V14.01,2013-04-15 01:28:00,
2013-04-14 18:33:00,57.4,49.5,29.35,SSW,202,0.9,0.9,75,0.00,,OVC028,0.00,VWS V14.01,2013-04-15 01:33:00,
2013-04-14 18:38:00,57.4,49.5,29.35,SSW,202,0.9,0.9,75,0.00,,OVC028,0.00,VWS V14.01,2013-04-15 01:38:00,
2013-04-14 18:43:00,57.4,49.5,29.35,SSW,202,0.9,0.9,75,0.00,,OVC028,0.00,VWS V14.01,2013-04-15 01:43:00,
2013-04-14 18:48:00,57.2,49.4,29.35,SSW,202,0.9,0.9,75,0.00,,OVC028,0.00,VWS V14.01,2013-04-15 01:48:00,
2013-04-14 18:53:00,57.2,49.4,29.35,SSW,202,0.9,0.9,75,0.00,,OVC028,0.00,VWS V14.01,2013-04-15 01:53:00,
2013-04-14 18:58:00,57.0,49.5,29.35,SSW,202,0.9,0.9,76,0.00,,OVC028,0.00,VWS V14.01,2013-04-15 01:58:00,
2013-04-14 19:03:00,57.0,49.5,29.35,SSW,202,0.9,0.9,76,0.00,,OVC032,0.00,VWS V14.01,2013-04-15 02:03:00,
2013-04-14 19:08:00,56.8,49.4,29.35,SSW,202,0.9,0.9,76,0.00,,OVC032,0.00,VWS V14.01,2013-04-15 02:08:00,
2013-04-14 19:13:00,56.8,49.4,29.35,SSW,202,0.9,0.9,76,0.00,,OVC032,0.00,VWS V14.01,2013-04-15 02:13:00,
2013-04-14 19:18:00,56.7,49.5,29.35,SSW,202,0.9,0.9,77,0.00,,OVC032,0.00,VWS V14.01,2013-04-15 02:18:00,
2013-04-14 19:23:00,56.7,49.5,29.35,SSW,202,0.9,0.9,77,0.00,,OVC032,0.00,VWS V14.01,2013-04-15 02:23:00,
2013-04-14 19:28:00,56.7,49.5,29.35,SSW,202,0.9,0.9,77,0.00,,OVC032,0.00,VWS V14.01,2013-04-15 02:28:00,
2013-04-14 19:33:00,56.5,49.4,29.35,SSW,202,0.9,0.9,77,0.00,,OVC033,0.00,VWS V14.01,2013-04-15 02:33:00,
2013-04-14 19:38:00,56.5,49.4,29.35,SSW,202,0.9,0.9,77,0.00,,OVC033,0.00,VWS V14.01,2013-04-15 02:38:00,
2013-04-14 19:43:00,56.3,48.8,29.35,SSW,202,0.9,0.9,76,0.00,,OVC033,0.00,VWS V14.01,2013-04-15 02:43:00,
2013-04-14 19:48:00,56.3,49.2,29.35,SSW,202,0.9,0.9,77,0.00,,OVC033,0.00,VWS V14.01,2013-04-15 02:48:00,
2013-04-14 19:53:00,56.3,49.2,29.35,SSW,202,0.9,0.9,77,0.00,,OVC033,0.00,VWS V14.01,2013-04-15 02:53:00,
2013-04-14 19:58:00,56.3,49.2,29.35,SSW,202,0.9,0.9,77,0.00,,OVC033,0.00,VWS V14.01,2013-04-15 02:58:00,
2013-04-14 20:03:00,56.3,49.2,29.38,SSW,202,0.9,0.9,77,0.00,,OVC029,0.00,VWS V14.01,2013-04-15 03:03:00,
2013-04-14 20:08:00,56.3,49.2,29.38,SSW,202,0.9,0.9,77,0.00,,OVC029,0.00,VWS V14.01,2013-04-15 03:08:00,
2013-04-14 20:13:00,56.3,49.5,29.38,SSW,202,0.9,0.9,78,0.00,,OVC029,0.00,VWS V14.01,2013-04-15 03:13:00,
2013-04-14 20:18:00,56.3,49.5,29.38,SSW,202,0.9,0.9,78,0.00,,OVC029,0.00,VWS V14.01,2013-04-15 03:18:00,
2013-04-14 20:23:00,56.1,49.4,29.38,SSW,202,0.9,0.9,78,0.00,,OVC029,0.00,VWS V14.01,2013-04-15 03:23:00,
2013-04-14 20:28:00,55.9,48.8,29.38,SSW,202,0.9,0.9,77,0.00,,OVC029,0.00,VWS V14.01,2013-04-15 03:28:00,
2013-04-14 20:33:00,55.9,48.8,29.38,SSW,202,0.9,0.9,77,0.00,,OVC029,0.00,VWS V14.01,2013-04-15 03:33:00,
2013-04-14 20:38:00,55.9,48.8,29.38,SSW,202,0.9,0.9,77,0.00,,OVC029,0.00,VWS V14.01,2013-04-15 03:38:00,
2013-04-14 20:43:00,55.9,48.8,29.38,SSW,202,0.9,0.9,77,0.00,,OVC029,0.00,VWS V14.01,2013-04-15 03:43:00,
2013-04-14 20:48:00,55.9,48.8,29.38,SSW,202,0.9,0.9,77,0.00,,OVC029,0.00,VWS V14.01,2013-04-15 03:48:00,
2013-04-14 20:53:00,55.9,48.8,29.38,SSW,202,0.9,0.9,77,0.00,,OVC029,0.00,VWS V14.01,2013-04-15 03:53:00,
2013-04-14 20:58:00,55.9,48.8,29.38,SSW,202,0.9,0.9,77,0.00,,OVC029,0.00,VWS V14.01,2013-04-15 03:58:00,
2013-04-14 21:00:00,55.9,48.8,29.38,SSW,202,0.9,0.9,77,0.00,,OVC036,0.00,VWS V14.01,2013-04-15 04:00:00,
2013-04-14 21:05:00,55.9,48.8,29.38,SSW,202,0.9,0.9,77,0.00,,OVC036,0.00,VWS V14.01,2013-04-15 04:05:00,
2013-04-14 21:10:00,55.9,48.8,29.38,SSW,202,0.9,0.9,77,0.00,,OVC036,0.00,VWS V14.01,2013-04-15 04:10:00,
2013-04-14 21:15:00,55.9,48.8,29.38,SSW,202,0.9,0.9,77,0.00,,OVC036,0.00,VWS V14.01,2013-04-15 04:15:00,
2013-04-14 21:20:00,55.8,48.7,29.38,SSW,202,0.9,0.9,77,0.00,,OVC036,0.00,VWS V14.01,2013-04-15 04:20:00,
2013-04-14 21:25:00,55.9,48.8,29.38,SSW,202,0.9,0.9,77,0.00,,OVC036,0.00,VWS V14.01,2013-04-15 04:25:00,
2013-04-14 21:30:00,55.9,48.8,29.38,SSW,202,0.9,0.9,77,0.00,,BKN039,0.00,VWS V14.01,2013-04-15 04:30:00,
2013-04-14 21:35:00,55.9,48.8,29.38,SSW,202,0.9,0.9,77,0.00,,BKN039,0.00,VWS V14.01,2013-04-15 04:35:00,
2013-04-14 21:40:00,55.9,48.8,29.38,SSW,202,0.9,0.9,77,0.00,,BKN039,0.00,VWS V14.01,2013-04-15 04:40:00,
2013-04-14 21:45:00,55.9,48.8,29.38,SSW,202,0.9,0.9,77,0.00,,BKN039,0.00,VWS V14.01,2013-04-15 04:45:00,
2013-04-14 21:50:00,55.8,48.7,29.38,SSW,202,0.9,0.9,77,0.00,,BKN039,0.00,VWS V14.01,2013-04-15 04:50:00,
2013-04-14 21:55:00,55.8,48.7,29.38,SSW,202,0.9,0.9,77,0.00,,BKN039,0.00,VWS V14.01,2013-04-15 04:55:00,
2013-04-14 22:00:00,55.8,48.7,29.38,SSW,202,0.9,0.9,77,0.00,,OVC039,0.00,VWS V14.01,2013-04-15 05:00:00,
2013-04-14 22:05:00,55.8,48.7,29.38,SSW,202,0.9,0.9,77,0.00,,OVC039,0.00,VWS V14.01,2013-04-15 05:05:00,
2013-04-14 22:10:00,55.8,48.7,29.38,SSW,202,0.9,0.9,77,0.00,,OVC039,0.00,VWS V14.01,2013-04-15 05:10:00,
2013-04-14 22:15:00,55.8,48.7,29.38,SSW,202,0.9,0.9,77,0.00,,OVC039,0.00,VWS V14.01,2013-04-15 05:15:00,
2013-04-14 22:20:00,55.8,48.7,29.38,SSW,202,0.9,0.9,77,0.00,,OVC039,0.00,VWS V14.01,2013-04-15 05:20:00,
2013-04-14 22:25:00,55.8,48.7,29.38,SSW,202,0.9,0.9,77,0.00,,OVC039,0.00,VWS V14.01,2013-04-15 05:25:00,
2013-04-14 22:30:00,55.8,48.7,29.38,SSW,202,0.9,0.9,77,0.00,,OVC039,0.00,VWS V14.01,2013-04-15 05:30:00,
2013-04-14 22:35:00,55.8,49.0,29.38,SSW,202,0.9,0.9,78,0.00,,OVC039,0.00,VWS V14.01,2013-04-15 05:35:00,
2013-04-14 22:40:00,55.6,48.8,29.38,SSW,202,0.9,0.9,78,0.00,,OVC039,0.00,VWS V14.01,2013-04-15 05:40:00,
2013-04-14 22:45:00,55.6,48.8,29.35,SSW,202,0.9,0.9,78,0.00,,BKN039,0.00,VWS V14.01,2013-04-15 05:45:00,
2013-04-14 22:50:00,55.6,48.8,29.35,SSW,202,0.9,0.9,78,0.00,,BKN039,0.00,VWS V14.01,2013-04-15 05:50:00,
2013-04-14 22:55:00,55.6,48.8,29.35,SSW,202,0.9,0.9,78,0.00,,BKN039,0.00,VWS V14.01,2013-04-15 05:55:00,
2013-04-14 23:00:00,55.6,48.8,29.38,SSW,202,0.9,0.9,78,0.00,,BKN039,0.00,VWS V14.01,2013-04-15 06:00:00,
2013-04-14 23:05:00,55.6,48.8,29.38,SSW,202,0.9,0.9,78,0.00,,BKN039,0.00,VWS V14.01,2013-04-15 06:05:00,
2013-04-14 23:10:00,55.4,49.0,29.38,SSW,202,0.9,0.9,79,0.00,,BKN039,0.00,VWS V14.01,2013-04-15 06:10:00,
2013-04-14 23:15:00,55.4,49.0,29.38,SSW,202,0.9,0.9,79,0.00,,BKN039,0.00,VWS V14.01,2013-04-15 06:15:00,
2013-04-14 23:20:00,55.4,49.0,29.38,SSW,202,0.9,0.9,79,0.00,,BKN039,0.00,VWS V14.01,2013-04-15 06:20:00,
2013-04-14 23:25:00,55.4,49.0,29.38,East,90,0.0,0.0,79,0.00,,BKN039,0.00,VWS V14.01,2013-04-15 06:25:00,
2013-04-14 23:30:00,55.4,49.0,29.38,ESE,112,0.0,0.0,79,0.00,,OVC039,0.00,VWS V14.01,2013-04-15 06:30:00,
2013-04-14 23:35:00,55.4,49.0,29.38,East,90,0.9,0.9,79,0.00,,OVC039,0.00,VWS V14.01,2013-04-15 06:35:00,
2013-04-14 23:40:00,55.4,49.3,29.38,East,90,0.0,0.0,80,0.00,,OVC039,0.00,VWS V14.01,2013-04-15 06:40:00,
2013-04-14 23:45:00,55.2,49.2,29.38,East,90,0.0,0.0,80,0.00,,OVC039,0.00,VWS V14.01,2013-04-15 06:45:00,
2013-04-14 23:50:00,55.2,49.5,29.38,East,90,0.0,0.0,81,0.00,,OVC039,0.00,VWS V14.01,2013-04-15 06:50:00,
2013-04-14 23:55:00,55.2,49.5,29.38,East,90,0.0,0.0,81,0.00,,OVC039,0.00,VWS V14.01,2013-04-15 06:55:00,